Time;durP1;ratioP1;P1;durP2;ratioP2;P2;SDS_P1;SDS_P2;PMS_P1;PMS_P2;Temp;Humidity;BMP_temperature;BMP_pressure;BME280_temperature;BME280_humidity;BME280_pressure;Samples;Min_cycle;Max_cycle;Signal;HPM_P1;HPM_P2
2024/01/13 00:01:09;;;;;;;56.53;26.95;;;-3.80;99.90;;;;;;5076507;28;20241;-77
2024/01/13 00:03:36;;;;;;;74.78;28.38;;;-3.80;99.90;;;;;;5026268;28;20200;-76
2024/01/13 00:06:06;;;;;;;62.28;29.52;;;-3.80;99.90;;;;;;5026402;28;20891;-77
2024/01/13 00:08:32;;;;;;;61.03;23.85;;;-3.80;99.90;;;;;;5012439;28;20318;-78
2024/01/13 00:11:00;;;;;;;55.15;25.23;;;-3.80;99.90;;;;;;5024507;28;20265;-77
2024/01/13 00:13:27;;;;;;;55.88;22.52;;;-3.80;99.90;;;;;;5017411;28;20290;-77
2024/01/13 00:15:54;;;;;;;49.78;23.45;;;-3.80;99.90;;;;;;5025949;28;20203;-78
2024/01/13 00:18:21;;;;;;;54.15;23.52;;;-3.80;99.90;;;;;;5032147;28;20292;-77
2024/01/13 00:20:48;;;;;;;49.42;22.33;;;-3.80;99.90;;;;;;5058075;28;20298;-78
2024/01/13 00:23:16;;;;;;;44.15;20.00;;;-3.70;99.90;;;;;;5031740;27;20203;-77
2024/01/13 00:25:43;;;;;;;42.90;19.05;;;-3.70;99.90;;;;;;5081653;28;20211;-77
2024/01/13 00:28:10;;;;;;;44.88;19.17;;;-3.70;99.90;;;;;;5077002;28;20211;-77
2024/01/13 00:30:37;;;;;;;45.40;22.80;;;-3.70;99.90;;;;;;5048071;28;20210;-77
2024/01/13 00:33:04;;;;;;;51.83;18.92;;;-3.70;99.90;;;;;;5011666;28;20306;-77
2024/01/13 00:35:31;;;;;;;42.53;22.20;;;-3.80;99.90;;;;;;5004157;28;20195;-77
2024/01/13 00:37:58;;;;;;;47.28;23.15;;;-3.70;99.90;;;;;;5005742;28;20296;-77
2024/01/13 00:40:26;;;;;;;41.17;20.65;;;-3.70;99.90;;;;;;5010512;28;20283;-77
2024/01/13 00:42:53;;;;;;;48.05;18.02;;;-3.70;99.90;;;;;;5011714;28;20266;-78
2024/01/13 00:45:20;;;;;;;39.50;19.77;;;-3.80;99.90;;;;;;5018279;28;20280;-77
2024/01/13 00:47:47;;;;;;;29.58;15.48;;;-3.80;99.90;;;;;;4998841;28;20278;-77
2024/01/13 00:50:15;;;;;;;53.08;16.40;;;-3.80;99.90;;;;;;5005572;28;20290;-77
2024/01/13 00:52:42;;;;;;;34.17;18.23;;;-3.80;99.90;;;;;;5012428;28;20212;-77
2024/01/13 00:55:09;;;;;;;38.40;19.52;;;-3.80;99.90;;;;;;5013282;28;20204;-77
2024/01/13 00:57:37;;;;;;;42.47;19.45;;;-3.80;99.90;;;;;;5006718;28;20242;-78
2024/01/13 01:00:05;;;;;;;33.22;18.23;;;-3.70;99.90;;;;;;5003245;28;20815;-76
2024/01/13 01:02:32;;;;;;;31.23;14.98;;;-3.70;99.90;;;;;;4998424;28;20213;-77
2024/01/13 01:04:59;;;;;;;41.17;17.38;;;-3.80;99.90;;;;;;5017112;28;20640;-78
2024/01/13 01:07:26;;;;;;;38.00;17.58;;;-3.80;99.90;;;;;;5005795;28;20208;-77
2024/01/13 01:09:53;;;;;;;32.42;15.55;;;-3.80;99.90;;;;;;4992773;28;20739;-77
2024/01/13 01:12:20;;;;;;;34.00;16.90;;;-3.80;99.90;;;;;;5009728;28;20213;-78
2024/01/13 01:14:48;;;;;;;32.80;17.45;;;-3.80;99.90;;;;;;5001554;28;20769;-77
2024/01/13 01:17:15;;;;;;;32.60;16.33;;;-3.80;99.90;;;;;;5016757;28;20246;-76
2024/01/13 01:19:42;;;;;;;37.00;15.80;;;-3.80;99.90;;;;;;5014331;28;20287;-77
2024/01/13 01:22:09;;;;;;;37.38;15.70;;;-3.80;99.90;;;;;;5006675;28;20563;-78
2024/01/13 01:24:36;;;;;;;36.95;18.20;;;-3.80;99.90;;;;;;5009708;28;20210;-78
2024/01/13 01:27:03;;;;;;;38.80;19.83;;;-3.80;99.90;;;;;;5002176;28;20208;-77
2024/01/13 01:29:30;;;;;;;40.50;20.35;;;-3.80;99.90;;;;;;5009906;28;20271;-77
2024/01/13 01:31:58;;;;;;;38.60;21.85;;;-3.80;99.90;;;;;;5046060;28;20203;-77
2024/01/13 01:34:25;;;;;;;44.30;17.65;;;-3.80;99.90;;;;;;5018249;28;20289;-78
2024/01/13 01:36:52;;;;;;;45.05;20.58;;;-3.80;99.90;;;;;;5004216;28;20294;-77
2024/01/13 01:39:19;;;;;;;47.30;18.60;;;-3.70;99.90;;;;;;5002079;28;20267;-77
2024/01/13 01:41:46;;;;;;;45.00;19.25;;;-3.80;99.90;;;;;;5002864;28;20210;-79
2024/01/13 01:44:13;;;;;;;42.65;20.83;;;-3.70;99.90;;;;;;5009721;28;20207;-78
2024/01/13 01:46:41;;;;;;;47.70;19.35;;;-3.70;99.90;;;;;;5007893;28;20275;-78
2024/01/13 01:49:18;;;;;;;52.58;19.38;;;-3.70;99.90;;;;;;5001973;28;20206;-77
2024/01/13 01:51:46;;;;;;;39.72;17.20;;;-3.70;99.90;;;;;;5016584;28;20619;-77
2024/01/13 01:54:14;;;;;;;76.22;21.15;;;-3.70;99.90;;;;;;5010005;28;20207;-77
2024/01/13 01:56:41;;;;;;;40.25;20.40;;;-3.70;99.90;;;;;;5005118;28;20303;-78
2024/01/13 01:59:08;;;;;;;39.17;17.75;;;-3.70;99.90;;;;;;5007946;28;20250;-78
2024/01/13 02:01:36;;;;;;;37.65;17.85;;;-3.70;99.90;;;;;;5009678;28;20730;-78
2024/01/13 02:04:03;;;;;;;35.83;17.45;;;-3.70;99.90;;;;;;5020797;28;20196;-77
2024/01/13 02:06:32;;;;;;;40.55;17.50;;;-3.70;99.90;;;;;;5010307;28;20314;-78
2024/01/13 02:09:00;;;;;;;38.75;16.05;;;-3.70;99.90;;;;;;5015530;28;20248;-77
2024/01/13 02:11:26;;;;;;;41.08;16.30;;;-3.70;99.90;;;;;;5011948;28;20273;-79
2024/01/13 02:13:53;;;;;;;29.85;16.58;;;-3.80;99.90;;;;;;5007537;28;20201;-77
2024/01/13 02:16:20;;;;;;;32.08;18.05;;;-3.80;99.90;;;;;;5012130;28;20207;-77
2024/01/13 02:18:47;;;;;;;25.27;13.25;;;-3.70;99.90;;;;;;5047727;28;20228;-77
2024/01/13 02:21:14;;;;;;;42.90;18.33;;;-3.80;99.90;;;;;;5004464;28;20723;-77
2024/01/13 02:23:43;;;;;;;42.88;17.00;;;-3.80;99.90;;;;;;5005821;28;20200;-77
2024/01/13 02:26:10;;;;;;;39.53;16.52;;;-3.80;99.90;;;;;;5017144;28;20208;-78
2024/01/13 02:28:38;;;;;;;41.42;17.67;;;-3.80;99.90;;;;;;5017586;28;20208;-77
2024/01/13 02:31:05;;;;;;;33.25;17.88;;;-3.80;99.90;;;;;;5014965;28;20302;-78
2024/01/13 02:33:32;;;;;;;42.00;18.15;;;-3.80;99.90;;;;;;5008238;28;20853;-78
2024/01/13 02:35:59;;;;;;;34.55;16.17;;;-3.90;99.90;;;;;;5005983;28;20208;-77
2024/01/13 02:38:26;;;;;;;42.83;17.70;;;-3.90;99.90;;;;;;5014993;28;20737;-77
2024/01/13 02:40:54;;;;;;;38.17;17.98;;;-3.90;99.90;;;;;;5052953;28;20317;-78
2024/01/13 02:43:21;;;;;;;36.28;17.17;;;-3.90;99.90;;;;;;5071504;28;20264;-77
2024/01/13 02:45:48;;;;;;;38.55;15.82;;;-3.90;99.90;;;;;;5010584;28;20199;-76
2024/01/13 02:48:18;;;;;;;40.70;18.08;;;-3.90;99.90;;;;;;5006402;28;20634;-76
2024/01/13 02:50:54;;;;;;;35.20;17.58;;;-3.90;99.90;;;;;;5023315;28;20208;-76
2024/01/13 02:53:21;;;;;;;38.67;15.50;;;-4.00;99.90;;;;;;5005604;28;20264;-77
2024/01/13 02:55:48;;;;;;;40.22;16.73;;;-4.10;99.90;;;;;;5004400;28;20204;-77
2024/01/13 02:58:16;;;;;;;29.63;15.65;;;-4.20;99.90;;;;;;5012664;28;20745;-77
2024/01/13 03:00:43;;;;;;;45.95;18.63;;;-4.20;99.90;;;;;;4993871;28;20223;-77
2024/01/13 03:03:10;;;;;;;38.60;17.20;;;-4.20;99.90;;;;;;5004049;28;20232;-76
2024/01/13 03:05:37;;;;;;;32.70;17.80;;;-4.20;99.90;;;;;;5004082;28;20246;-77
2024/01/13 03:08:05;;;;;;;34.40;18.10;;;-4.10;99.90;;;;;;5022051;28;20648;-78
2024/01/13 03:10:32;;;;;;;37.00;16.52;;;-4.10;99.90;;;;;;5004973;28;20257;-78
2024/01/13 03:12:59;;;;;;;45.63;19.80;;;-4.10;99.90;;;;;;5001792;28;20292;-78
2024/01/13 03:15:27;;;;;;;45.00;18.42;;;-4.10;99.90;;;;;;5004426;28;20258;-77
2024/01/13 03:17:54;;;;;;;44.50;20.42;;;-4.10;99.90;;;;;;5022192;28;20565;-76
2024/01/13 03:20:21;;;;;;;36.28;17.42;;;-4.10;99.90;;;;;;4998876;28;20887;-77
2024/01/13 03:22:48;;;;;;;48.78;21.80;;;-4.10;99.90;;;;;;5008278;28;20196;-78
2024/01/13 03:25:15;;;;;;;29.88;13.23;;;-4.10;99.90;;;;;;5004462;28;20218;-78
2024/01/13 03:27:42;;;;;;;36.55;18.92;;;-4.10;99.90;;;;;;5005887;28;20527;-76
2024/01/13 03:30:10;;;;;;;36.28;19.00;;;-4.10;99.90;;;;;;5016772;28;20212;-77
2024/01/13 03:32:38;;;;;;;52.67;21.30;;;-4.10;99.90;;;;;;5001458;28;20256;-78
2024/01/13 03:35:06;;;;;;;44.35;21.00;;;-4.10;99.90;;;;;;5002609;28;20281;-78
2024/01/13 03:37:32;;;;;;;39.15;14.65;;;-4.00;99.90;;;;;;5001739;28;20273;-77
2024/01/13 03:40:00;;;;;;;38.80;18.02;;;-4.00;99.90;;;;;;5003409;28;20204;-78
2024/01/13 03:42:26;;;;;;;44.22;19.38;;;-4.00;99.90;;;;;;5006060;28;20263;-78
2024/01/13 03:44:54;;;;;;;35.35;16.83;;;-3.90;99.90;;;;;;5000091;28;20261;-78
2024/01/13 03:47:21;;;;;;;34.17;16.23;;;-3.90;99.90;;;;;;5006680;28;20229;-79
2024/01/13 03:49:50;;;;;;;40.42;18.80;;;-3.90;99.90;;;;;;5005630;28;20208;-79
2024/01/13 03:52:17;;;;;;;37.28;20.83;;;-3.90;99.90;;;;;;5003670;28;20200;-78
2024/01/13 03:54:46;;;;;;;46.45;19.70;;;-3.90;99.90;;;;;;5003177;28;20616;-77
2024/01/13 03:57:13;;;;;;;35.10;16.15;;;-4.00;99.90;;;;;;4992410;28;20253;-78
2024/01/13 03:59:40;;;;;;;48.08;18.88;;;-3.90;99.90;;;;;;5004141;28;20664;-79
2024/01/13 04:02:07;;;;;;;41.67;21.42;;;-3.90;99.90;;;;;;4996280;28;20227;-77
2024/01/13 04:04:34;;;;;;;43.90;18.80;;;-3.90;99.90;;;;;;5008046;28;20204;-77
2024/01/13 04:07:02;;;;;;;52.38;18.65;;;-4.00;99.90;;;;;;5015992;28;20676;-77
2024/01/13 04:09:29;;;;;;;46.42;17.88;;;-4.00;99.90;;;;;;5041364;28;20732;-78
2024/01/13 04:11:56;;;;;;;46.40;19.08;;;-3.90;99.90;;;;;;5000629;28;20202;-78
2024/01/13 04:14:23;;;;;;;48.72;19.10;;;-3.90;99.90;;;;;;4998798;28;20668;-77
2024/01/13 04:16:50;;;;;;;39.75;18.88;;;-3.90;99.90;;;;;;5004023;28;20238;-77
2024/01/13 04:19:17;;;;;;;47.95;19.52;;;-3.90;99.90;;;;;;5008146;28;20201;-78
2024/01/13 04:21:44;;;;;;;48.67;18.38;;;-4.00;99.90;;;;;;5009848;28;20259;-78
2024/01/13 04:24:12;;;;;;;46.15;21.45;;;-4.00;99.90;;;;;;5008286;28;20270;-78
2024/01/13 04:26:40;;;;;;;50.05;21.73;;;-4.00;99.90;;;;;;5012710;28;20214;-78
2024/01/13 04:29:07;;;;;;;43.65;18.17;;;-3.90;99.90;;;;;;5008709;28;20318;-78
2024/01/13 04:31:34;;;;;;;49.78;19.42;;;-4.00;99.90;;;;;;4996977;28;20204;-76
2024/01/13 04:34:01;;;;;;;31.15;15.95;;;-3.90;99.90;;;;;;5002471;28;20257;-76
2024/01/13 04:36:28;;;;;;;41.47;17.65;;;-3.90;99.90;;;;;;5001745;28;20269;-78
2024/01/13 04:38:56;;;;;;;47.60;20.55;;;-3.90;99.90;;;;;;5002941;28;20252;-78
2024/01/13 04:41:24;;;;;;;48.42;19.63;;;-3.80;99.90;;;;;;5005193;28;20242;-76
2024/01/13 04:43:51;;;;;;;51.33;20.83;;;-3.80;99.90;;;;;;4995530;28;20292;-78
2024/01/13 04:46:18;;;;;;;50.90;19.52;;;-3.90;99.90;;;;;;5001540;28;20273;-78
2024/01/13 04:48:45;;;;;;;39.92;18.80;;;-3.90;99.90;;;;;;5011463;28;20204;-78
2024/01/13 04:51:12;;;;;;;45.28;18.80;;;-3.90;99.90;;;;;;5025199;28;20196;-77
2024/01/13 04:53:39;;;;;;;53.13;19.30;;;-3.80;99.90;;;;;;5011130;28;20294;-75
2024/01/13 04:56:06;;;;;;;42.35;20.02;;;-3.80;99.90;;;;;;4991826;28;20204;-79
2024/01/13 04:58:35;;;;;;;49.58;19.90;;;-3.80;99.90;;;;;;5014119;28;20232;-76
2024/01/13 05:01:01;;;;;;;53.65;20.23;;;-3.70;99.90;;;;;;5048267;28;20321;-77
2024/01/13 05:03:28;;;;;;;48.45;17.40;;;-3.70;99.90;;;;;;5014006;28;20208;-77
2024/01/13 05:05:55;;;;;;;51.40;21.48;;;-3.80;99.90;;;;;;5010574;28;20617;-76
2024/01/13 05:08:22;;;;;;;59.13;24.10;;;-3.70;99.90;;;;;;4992290;28;20263;-76
2024/01/13 05:10:49;;;;;;;36.50;15.10;;;-3.70;99.90;;;;;;5011336;28;20250;-76
2024/01/13 05:13:16;;;;;;;41.30;19.70;;;-3.70;99.90;;;;;;5008927;28;20230;-76
2024/01/13 05:15:45;;;;;;;41.75;20.65;;;-3.70;99.90;;;;;;5006954;28;20215;-75
2024/01/13 05:18:12;;;;;;;44.60;20.45;;;-3.70;99.90;;;;;;5020847;28;20774;-78
2024/01/13 05:20:39;;;;;;;47.22;18.35;;;-3.70;99.90;;;;;;5000238;28;20325;-77
2024/01/13 05:23:07;;;;;;;36.17;16.75;;;-3.70;99.90;;;;;;5002538;28;20263;-77
2024/01/13 05:25:34;;;;;;;33.65;18.45;;;-3.80;99.90;;;;;;5000253;28;20659;-76
2024/01/13 05:28:03;;;;;;;36.03;14.63;;;-3.80;99.90;;;;;;5000214;28;20206;-76
2024/01/13 05:30:32;;;;;;;41.42;16.40;;;-3.80;99.90;;;;;;5029580;28;20624;-78
2024/01/13 05:33:00;;;;;;;38.88;19.05;;;-3.70;99.90;;;;;;5015709;28;20204;-77
2024/01/13 05:35:27;;;;;;;34.67;17.05;;;-3.80;99.90;;;;;;4993946;28;20216;-78
2024/01/13 05:37:55;;;;;;;43.30;17.67;;;-3.80;99.90;;;;;;5011889;28;20378;-76
2024/01/13 05:40:22;;;;;;;30.95;16.60;;;-3.80;99.90;;;;;;5014704;28;20673;-76
2024/01/13 05:42:49;;;;;;;37.15;16.67;;;-3.80;99.90;;;;;;5026640;28;20221;-78
2024/01/13 05:45:16;;;;;;;41.28;16.65;;;-3.70;99.90;;;;;;5023136;28;20881;-77
2024/01/13 05:47:45;;;;;;;43.47;20.00;;;-3.80;99.90;;;;;;5014745;28;20289;-77
2024/01/13 05:50:13;;;;;;;39.28;15.75;;;-3.70;99.90;;;;;;5010790;28;20217;-79
2024/01/13 05:52:40;;;;;;;45.13;14.60;;;-3.70;99.90;;;;;;5005803;28;20258;-81
2024/01/13 05:55:07;;;;;;;34.30;15.82;;;-3.70;99.90;;;;;;5013812;28;20261;-76
2024/01/13 05:57:34;;;;;;;36.55;15.77;;;-3.70;99.90;;;;;;5000798;28;20256;-78
2024/01/13 06:00:01;;;;;;;34.97;14.45;;;-3.70;99.90;;;;;;5012376;28;20281;-77
2024/01/13 06:02:28;;;;;;;33.58;13.30;;;-3.70;99.90;;;;;;4991839;28;20264;-76
2024/01/13 06:04:55;;;;;;;29.98;14.40;;;-3.70;99.90;;;;;;5000621;28;20237;-77
2024/01/13 06:07:24;;;;;;;39.88;16.88;;;-3.70;99.90;;;;;;5000706;28;20663;-77
2024/01/13 06:09:51;;;;;;;33.15;15.30;;;-3.70;99.90;;;;;;5005015;28;20208;-77
2024/01/13 06:12:18;;;;;;;37.88;15.57;;;-3.70;99.90;;;;;;5001362;28;20256;-78
2024/01/13 06:14:45;;;;;;;43.53;17.35;;;-3.70;99.90;;;;;;5001514;28;20241;-76
2024/01/13 06:17:12;;;;;;;53.40;21.25;;;-3.70;99.90;;;;;;5001157;28;20280;-77
2024/01/13 06:19:39;;;;;;;40.25;16.88;;;-3.60;99.90;;;;;;5007429;28;20725;-77
2024/01/13 06:22:06;;;;;;;45.78;17.98;;;-3.70;99.90;;;;;;5003152;28;20302;-76
2024/01/13 06:24:34;;;;;;;38.20;17.25;;;-3.80;99.90;;;;;;5006196;28;20687;-77
2024/01/13 06:27:01;;;;;;;24.73;14.15;;;-3.70;99.90;;;;;;5001168;28;20285;-78
2024/01/13 06:29:28;;;;;;;39.78;16.58;;;-3.70;99.90;;;;;;5026757;28;20612;-77
2024/01/13 06:31:55;;;;;;;38.90;17.95;;;-3.70;99.90;;;;;;5003745;28;20302;-77
2024/01/13 06:34:22;;;;;;;41.63;18.40;;;-3.70;99.90;;;;;;4999824;28;20242;-76
2024/01/13 06:36:49;;;;;;;39.15;18.58;;;-3.80;99.90;;;;;;5001747;28;20712;-77
2024/01/13 06:39:16;;;;;;;34.08;17.13;;;-3.70;99.90;;;;;;5000031;28;20208;-78
2024/01/13 06:41:44;;;;;;;40.63;17.23;;;-3.70;99.90;;;;;;4998483;28;20263;-77
2024/01/13 06:44:11;;;;;;;34.25;15.27;;;-3.70;99.90;;;;;;4999978;28;20215;-81
2024/01/13 06:46:38;;;;;;;47.33;19.70;;;-3.70;99.90;;;;;;4994338;28;20560;-76
2024/01/13 06:49:05;;;;;;;33.75;16.50;;;-3.70;99.90;;;;;;5014169;28;20285;-77
2024/01/13 06:51:32;;;;;;;37.17;15.85;;;-3.80;99.90;;;;;;5042467;28;20298;-76
2024/01/13 06:53:59;;;;;;;28.02;14.18;;;-3.80;99.90;;;;;;5046588;28;20200;-78
2024/01/13 06:56:26;;;;;;;37.00;16.73;;;-3.80;99.90;;;;;;5031729;28;20232;-76
2024/01/13 06:58:55;;;;;;;43.63;18.40;;;-3.80;99.90;;;;;;5009450;28;20208;-76
2024/01/13 07:01:23;;;;;;;35.28;13.77;;;-3.80;99.90;;;;;;5025230;28;20670;-87
2024/01/13 07:03:52;;;;;;;43.42;15.50;;;-3.80;99.90;;;;;;5023975;28;20239;-77
2024/01/13 07:06:19;;;;;;;44.55;18.33;;;-3.80;99.90;;;;;;5007049;28;20213;-78
2024/01/13 07:08:46;;;;;;;55.22;21.05;;;-3.80;99.90;;;;;;5049615;28;20206;-77
2024/01/13 07:11:13;;;;;;;42.85;20.25;;;-3.80;99.90;;;;;;5031636;28;20200;-75
2024/01/13 07:13:42;;;;;;;39.88;19.33;;;-3.80;99.90;;;;;;5030487;28;20377;-76
2024/01/13 07:16:10;;;;;;;38.00;18.02;;;-3.80;99.90;;;;;;5033966;28;20771;-78
2024/01/13 07:18:37;;;;;;;44.55;18.40;;;-3.80;99.90;;;;;;5074355;28;20201;-78
2024/01/13 07:21:05;;;;;;;36.08;17.35;;;-3.80;99.90;;;;;;5013521;28;20561;-76
2024/01/13 07:23:32;;;;;;;47.58;19.17;;;-3.80;99.90;;;;;;5016373;28;20225;-76
2024/01/13 07:25:59;;;;;;;46.30;17.95;;;-3.80;99.90;;;;;;5046739;28;20231;-76
2024/01/13 07:28:26;;;;;;;53.13;20.27;;;-3.80;99.90;;;;;;5003332;28;20208;-78
2024/01/13 07:30:54;;;;;;;51.13;23.10;;;-3.80;99.90;;;;;;5023592;28;20261;-77
2024/01/13 07:33:23;;;;;;;43.28;18.50;;;-3.80;99.90;;;;;;5002151;28;20646;-76
2024/01/13 07:35:49;;;;;;;63.60;21.48;;;-3.70;99.90;;;;;;5014068;28;20258;-77
2024/01/13 07:38:16;;;;;;;65.13;22.13;;;-3.80;99.90;;;;;;5025907;28;20204;-76
2024/01/13 07:40:43;;;;;;;47.00;19.42;;;-3.80;99.90;;;;;;5033913;28;20207;-76
2024/01/13 07:43:11;;;;;;;56.97;22.48;;;-3.70;99.90;;;;;;5070746;28;20809;-76
2024/01/13 07:45:38;;;;;;;46.17;20.70;;;-3.70;99.90;;;;;;5057947;28;20288;-76
2024/01/13 07:48:06;;;;;;;42.30;21.65;;;-3.70;99.90;;;;;;5042156;28;20818;-76
2024/01/13 07:50:34;;;;;;;45.50;20.70;;;-3.60;99.90;;;;;;5001429;28;20903;-79
2024/01/13 07:53:01;;;;;;;41.88;17.52;;;-3.70;99.90;;;;;;5015613;28;20259;-77
2024/01/13 07:55:28;;;;;;;50.53;21.15;;;-3.60;99.90;;;;;;4996898;28;20257;-76
2024/01/13 07:57:55;;;;;;;51.45;18.48;;;-3.60;99.90;;;;;;4985845;28;20209;-76
2024/01/13 08:00:23;;;;;;;44.97;18.08;;;-3.70;99.90;;;;;;5004151;28;20279;-75
2024/01/13 08:02:50;;;;;;;49.25;20.75;;;-3.60;99.90;;;;;;5005041;28;20254;-76
2024/01/13 08:05:17;;;;;;;59.67;21.60;;;-3.70;99.90;;;;;;5022660;28;20250;-76
2024/01/13 08:07:45;;;;;;;49.13;18.80;;;-3.70;99.90;;;;;;5003074;28;20262;-77
2024/01/13 08:10:13;;;;;;;57.47;24.30;;;-3.60;99.90;;;;;;5034387;28;20291;-77
2024/01/13 08:12:40;;;;;;;55.30;23.25;;;-3.60;99.90;;;;;;5021392;28;20595;-75
2024/01/13 08:15:08;;;;;;;49.10;21.42;;;-3.60;99.90;;;;;;5013037;28;20214;-76
2024/01/13 08:17:35;;;;;;;53.92;19.45;;;-3.60;99.90;;;;;;5042859;28;20317;-76
2024/01/13 08:20:04;;;;;;;54.78;21.10;;;-3.60;99.90;;;;;;5051040;28;20207;-77
2024/01/13 08:22:31;;;;;;;49.33;21.48;;;-3.60;99.90;;;;;;5009417;28;20589;-76
2024/01/13 08:24:59;;;;;;;53.80;21.17;;;-3.70;99.90;;;;;;5047594;28;20219;-75
2024/01/13 08:27:27;;;;;;;63.40;21.52;;;-3.70;99.90;;;;;;5037846;28;20199;-75
2024/01/13 08:29:54;;;;;;;57.58;21.17;;;-3.60;99.90;;;;;;5008785;28;20230;-75
2024/01/13 08:32:20;;;;;;;48.42;21.25;;;-3.60;99.90;;;;;;5010524;28;20229;-75
2024/01/13 08:34:47;;;;;;;51.03;21.02;;;-3.50;99.90;;;;;;5002703;28;20571;-74
2024/01/13 08:37:14;;;;;;;58.50;23.13;;;-3.60;99.90;;;;;;5012542;28;20200;-76
2024/01/13 08:39:41;;;;;;;63.88;23.70;;;-3.50;99.90;;;;;;5068162;28;20680;-78
2024/01/13 08:42:10;;;;;;;67.90;24.77;;;-3.60;99.90;;;;;;5013789;28;20220;-77
2024/01/13 08:44:37;;;;;;;47.47;17.75;;;-3.70;99.90;;;;;;5004477;28;20273;-78
2024/01/13 08:47:04;;;;;;;64.57;22.23;;;-3.70;99.90;;;;;;5010850;28;20204;-76
2024/01/13 08:49:31;;;;;;;48.47;22.38;;;-3.70;99.90;;;;;;5057697;28;20227;-78
2024/01/13 08:51:58;;;;;;;49.10;19.50;;;-3.70;99.90;;;;;;5048950;28;20196;-76
2024/01/13 08:54:25;;;;;;;54.38;22.02;;;-3.80;99.90;;;;;;5033276;28;20249;-76
2024/01/13 08:56:52;;;;;;;72.50;24.17;;;-3.70;99.90;;;;;;5019254;28;20235;-76
2024/01/13 08:59:20;;;;;;;60.15;20.13;;;-3.60;99.90;;;;;;5028698;28;20254;-75
2024/01/13 09:01:47;;;;;;;62.03;22.48;;;-3.60;99.90;;;;;;5018853;28;20286;-77
2024/01/13 09:04:14;;;;;;;63.10;24.30;;;-3.50;99.90;;;;;;5004213;28;20258;-78
2024/01/13 09:06:41;;;;;;;64.68;25.20;;;-3.50;99.90;;;;;;5041063;28;20289;-79
2024/01/13 09:09:08;;;;;;;53.67;21.67;;;-3.50;99.90;;;;;;5023076;28;20306;-76
2024/01/13 09:11:35;;;;;;;54.20;19.65;;;-3.50;99.90;;;;;;5017891;28;20208;-77
2024/01/13 09:14:02;;;;;;;55.13;20.55;;;-3.40;99.90;;;;;;5012515;28;20292;-77
2024/01/13 09:16:31;;;;;;;68.50;22.15;;;-3.40;99.90;;;;;;5019982;28;20265;-76
2024/01/13 09:18:57;;;;;;;55.13;21.83;;;-3.40;99.90;;;;;;5051994;28;20197;-77
2024/01/13 09:21:24;;;;;;;44.50;18.27;;;-3.40;99.90;;;;;;5041201;28;20228;-76
2024/01/13 09:23:52;;;;;;;71.10;21.50;;;-3.40;99.90;;;;;;5045822;28;20420;-76
2024/01/13 09:26:19;;;;;;;61.67;22.02;;;-3.30;99.90;;;;;;5043095;28;20211;-77
2024/01/13 09:28:46;;;;;;;60.05;23.48;;;-3.30;99.90;;;;;;5049239;28;20663;-78
2024/01/13 09:31:13;;;;;;;52.75;19.38;;;-3.30;99.90;;;;;;5033832;28;20287;-76
2024/01/13 09:33:41;;;;;;;50.60;21.10;;;-3.30;99.90;;;;;;5041312;28;20265;-78
2024/01/13 09:36:08;;;;;;;60.58;24.25;;;-3.20;99.90;;;;;;5038574;28;20668;-76
2024/01/13 09:38:35;;;;;;;41.03;16.90;;;-3.20;99.90;;;;;;5010697;28;20236;-76
2024/01/13 09:41:02;;;;;;;50.70;20.42;;;-3.30;99.90;;;;;;5019591;28;20207;-76
2024/01/13 09:43:38;;;;;;;42.17;18.00;;;-3.30;99.90;;;;;;5022590;28;20261;-77
2024/01/13 09:46:05;;;;;;;55.80;21.48;;;-3.30;99.90;;;;;;5019586;28;20269;-77
2024/01/13 09:48:32;;;;;;;53.08;20.25;;;-3.30;99.90;;;;;;5024556;28;20316;-77
2024/01/13 09:51:01;;;;;;;48.67;20.90;;;-3.20;99.90;;;;;;5017785;28;20236;-77
2024/01/13 09:53:29;;;;;;;61.65;22.25;;;-3.20;99.90;;;;;;5022843;28;20230;-77
2024/01/13 09:56:01;;;;;;;50.55;20.27;;;-3.20;99.90;;;;;;4995246;28;20213;-76
2024/01/13 09:58:29;;;;;;;56.40;23.48;;;-3.10;99.90;;;;;;5009011;28;20198;-76
2024/01/13 10:00:59;;;;;;;46.83;18.73;;;-3.10;99.90;;;;;;5002225;28;20235;-77
2024/01/13 10:03:26;;;;;;;43.92;19.05;;;-3.20;99.90;;;;;;5039012;28;20279;-76
2024/01/13 10:05:53;;;;;;;44.38;19.30;;;-3.20;99.90;;;;;;5002989;28;20286;-77
2024/01/13 10:08:31;;;;;;;44.13;20.63;;;-3.10;99.90;;;;;;5011670;28;20207;-77
2024/01/13 10:10:57;;;;;;;45.15;17.45;;;-3.30;99.90;;;;;;5006530;28;20213;-77
2024/01/13 10:13:25;;;;;;;53.73;19.47;;;-3.30;99.90;;;;;;5015506;28;20203;-78
2024/01/13 10:15:52;;;;;;;47.00;18.10;;;-3.20;99.90;;;;;;5049878;28;20467;-77
2024/01/13 10:18:22;;;;;;;41.80;19.00;;;-3.20;99.90;;;;;;5010983;28;21010;-77
2024/01/13 10:20:49;;;;;;;52.75;21.10;;;-3.20;99.90;;;;;;5009928;28;20707;-77
2024/01/13 10:23:16;;;;;;;45.72;19.63;;;-3.20;99.90;;;;;;5020695;28;20256;-77
2024/01/13 10:25:44;;;;;;;39.25;16.23;;;-3.20;99.90;;;;;;5010990;28;20221;-77
2024/01/13 10:28:11;;;;;;;39.45;19.23;;;-3.10;99.90;;;;;;5025511;28;20239;-78
2024/01/13 10:30:38;;;;;;;50.97;21.73;;;-3.10;99.90;;;;;;5040773;28;20261;-78
2024/01/13 10:33:05;;;;;;;44.58;19.15;;;-3.00;99.90;;;;;;5003102;28;20897;-79
2024/01/13 10:35:33;;;;;;;45.88;17.42;;;-2.90;99.90;;;;;;5012185;28;20210;-77
2024/01/13 10:37:59;;;;;;;39.53;17.35;;;-3.00;99.90;;;;;;5019627;28;20624;-78
2024/01/13 10:40:27;;;;;;;56.72;18.60;;;-3.00;99.90;;;;;;5019277;28;20231;-78
2024/01/13 10:42:55;;;;;;;56.13;19.15;;;-3.00;99.90;;;;;;5035498;28;20326;-85
2024/01/13 10:45:24;;;;;;;44.20;17.60;;;-3.00;99.90;;;;;;5008263;28;20298;-78
2024/01/13 10:47:53;;;;;;;51.03;20.02;;;-2.90;99.90;;;;;;5004051;28;20871;-80
2024/01/13 10:50:20;;;;;;;35.65;14.18;;;-2.90;99.90;;;;;;5005348;28;20204;-78
2024/01/13 10:52:59;;;;;;;31.85;14.48;;;-2.90;99.90;;;;;;5010240;28;20263;-78
2024/01/13 10:55:26;;;;;;;41.30;16.05;;;-2.90;99.90;;;;;;5011429;28;20203;-78
2024/01/13 10:57:56;;;;;;;49.10;20.33;;;-2.80;99.90;;;;;;5004819;28;20311;-79
2024/01/13 11:00:24;;;;;;;46.70;20.08;;;-2.80;99.90;;;;;;5017441;28;20738;-78
2024/01/13 11:02:53;;;;;;;45.33;19.38;;;-2.80;99.90;;;;;;5025798;28;20229;-78
2024/01/13 11:05:22;;;;;;;51.38;17.77;;;-2.80;99.90;;;;;;5012781;28;20210;-78
2024/01/13 11:07:49;;;;;;;43.92;17.58;;;-2.60;99.90;;;;;;5021047;28;20197;-78
2024/01/13 11:10:21;;;;;;;34.42;18.17;;;-2.60;99.90;;;;;;5024903;28;20300;-80
2024/01/13 11:12:52;;;;;;;40.90;14.55;;;-2.50;99.90;;;;;;5015847;28;20219;-78
2024/01/13 11:15:27;;;;;;;36.28;17.55;;;-2.60;99.90;;;;;;5014096;28;20216;-78
2024/01/13 11:17:54;;;;;;;47.08;20.73;;;-2.50;99.90;;;;;;5006275;28;20310;-78
2024/01/13 11:20:22;;;;;;;41.53;18.27;;;-2.50;99.90;;;;;;5008796;28;20306;-77
2024/01/13 11:22:57;;;;;;;44.38;19.83;;;-2.50;99.90;;;;;;5012258;28;20223;-79
2024/01/13 11:25:25;;;;;;;39.92;19.23;;;-2.40;99.90;;;;;;5010641;28;20822;-78
2024/01/13 11:27:57;;;;;;;53.70;21.48;;;-2.30;99.90;;;;;;5003991;28;20240;-80
2024/01/13 11:30:39;;;;;;;38.10;17.50;;;-2.30;99.90;;;;;;5011158;28;20231;-78
2024/01/13 11:33:07;;;;;;;36.67;18.08;;;-2.40;99.90;;;;;;5008873;28;20242;-78
2024/01/13 11:35:34;;;;;;;48.40;17.02;;;-2.50;99.90;;;;;;5009880;28;20204;-79
2024/01/13 11:38:02;;;;;;;50.67;20.48;;;-2.50;99.90;;;;;;5024717;28;20215;-77
2024/01/13 11:40:32;;;;;;;29.73;14.70;;;-2.40;99.90;;;;;;5003740;28;20258;-80
2024/01/13 11:43:00;;;;;;;42.88;17.30;;;-2.40;99.90;;;;;;5012200;28;20262;-77
2024/01/13 11:45:42;;;;;;;62.08;17.80;;;-2.30;99.90;;;;;;5027268;28;20667;-80
2024/01/13 11:48:38;;;;;;;35.78;15.05;;;-2.30;99.90;;;;;;5023824;28;20205;-76
2024/01/13 11:51:08;;;;;;;43.78;18.35;;;-2.30;99.90;;;;;;5019812;28;20299;-75
2024/01/13 11:53:36;;;;;;;48.05;17.08;;;-2.20;99.90;;;;;;5028955;28;20205;-77
2024/01/13 11:56:04;;;;;;;39.00;18.30;;;-2.20;99.90;;;;;;5002056;28;20688;-76
2024/01/13 11:58:32;;;;;;;53.00;19.88;;;-2.20;99.90;;;;;;5085383;28;20197;-75
2024/01/13 12:01:01;;;;;;;32.00;16.27;;;-2.10;99.90;;;;;;4996275;28;20270;-78
2024/01/13 12:03:28;;;;;;;49.70;20.05;;;-2.10;99.90;;;;;;5002872;28;20255;-76
2024/01/13 12:05:56;;;;;;;42.55;18.33;;;-2.10;99.90;;;;;;5010647;28;20217;-77
2024/01/13 12:08:25;;;;;;;44.88;16.98;;;-2.00;99.90;;;;;;5003914;28;20201;-78
2024/01/13 12:10:53;;;;;;;45.78;18.75;;;-2.00;99.90;;;;;;5006458;28;20231;-75
2024/01/13 12:13:21;;;;;;;52.75;17.73;;;-2.20;99.90;;;;;;5002196;28;20206;-78
2024/01/13 12:15:49;;;;;;;36.72;16.23;;;-2.20;99.90;;;;;;5011215;28;20200;-77
2024/01/13 12:18:21;;;;;;;47.90;20.52;;;-2.20;99.90;;;;;;4996895;28;20267;-77
2024/01/13 12:20:50;;;;;;;49.88;17.27;;;-2.10;99.90;;;;;;5012799;28;20292;-76
2024/01/13 12:23:18;;;;;;;45.88;17.60;;;-2.10;99.90;;;;;;5022983;28;20274;-76
2024/01/13 12:25:45;;;;;;;50.45;22.60;;;-2.20;99.90;;;;;;5008404;28;20207;-78
2024/01/13 12:28:12;;;;;;;46.53;20.38;;;-2.20;99.90;;;;;;5006269;28;20693;-77
2024/01/13 12:30:40;;;;;;;37.47;16.83;;;-2.20;99.90;;;;;;5007875;28;20233;-78